Time;durP1;ratioP1;P1;durP2;ratioP2;P2;SDS_P1;SDS_P2;PMS_P1;PMS_P2;Temp;Humidity;BMP_temperature;BMP_pressure;BME280_temperature;BME280_humidity;BME280_pressure;Samples;Min_cycle;Max_cycle;Signal;HPM_P1;HPM_P2
2022/06/18 00:00:56;;;;;;;;;;;;;;;25.20;44.41;101808.53;5088414;28;19916;-79
2022/06/18 00:03:24;;;;;;;;;;;;;;;25.16;44.25;101807.00;5058161;28;20354;-80
2022/06/18 00:05:54;;;;;;;;;;;;;;;25.06;44.90;101816.72;5082572;28;20369;-78
2022/06/18 00:08:22;;;;;;;;;;;;;;;25.12;44.67;101816.31;5083520;28;20360;-78
2022/06/18 00:10:53;;;;;;;;;;;;;;;25.09;45.18;101816.50;5089152;28;19917;-80
2022/06/18 00:13:54;;;;;;;;;;;;;;;25.14;44.95;101814.34;5096750;28;19916;-79
2022/06/18 00:16:11;;;;;;;;;;;;;;;25.15;44.93;101804.41;5097273;28;19916;-80
2022/06/18 00:18:37;;;;;;;;;;;;;;;25.12;44.80;101810.00;5101948;28;19916;-79
2022/06/18 00:21:04;;;;;;;;;;;;;;;25.03;45.86;101806.06;5085229;28;19955;-79
2022/06/18 00:23:30;;;;;;;;;;;;;;;25.03;45.74;101806.06;5090848;28;19915;-80
2022/06/18 00:25:56;;;;;;;;;;;;;;;24.87;46.18;101801.69;5089381;28;19920;-79
2022/06/18 00:28:24;;;;;;;;;;;;;;;24.94;45.67;101807.56;5093323;28;19919;-79
2022/06/18 00:30:51;;;;;;;;;;;;;;;24.91;45.99;101801.47;5091795;28;19922;-79
2022/06/18 00:33:17;;;;;;;;;;;;;;;24.94;45.79;101801.28;5095512;28;19916;-78
2022/06/18 00:35:44;;;;;;;;;;;;;;;24.90;46.27;101806.03;5093849;28;19930;-79
2022/06/18 00:38:17;;;;;;;;;;;;;;;24.93;45.84;101800.38;5093126;28;19921;-79
2022/06/18 00:40:43;;;;;;;;;;;;;;;24.87;46.20;101798.97;5097961;28;19920;-78
2022/06/18 00:43:13;;;;;;;;;;;;;;;24.85;45.89;101798.19;5100821;28;19916;-78
2022/06/18 00:45:39;;;;;;;;;;;;;;;24.79;46.71;101798.59;5088135;28;20297;-78
2022/06/18 00:51:02;;;;;;;;;;;;;;;24.77;45.88;101789.66;5094485;27;19981;-78
2022/06/18 00:53:31;;;;;;;;;;;;;;;24.73;46.74;101793.56;5090845;28;19916;-79
2022/06/18 00:56:02;;;;;;;;;;;;;;;24.73;46.91;101803.53;5086595;28;19935;-77
2022/06/18 00:58:35;;;;;;;;;;;;;;;24.71;46.48;101798.19;5092946;28;19927;-78
2022/06/18 01:01:02;;;;;;;;;;;;;;;24.74;46.14;101795.31;5086341;28;19956;-78
2022/06/18 01:03:31;;;;;;;;;;;;;;;24.71;45.95;101798.19;5089424;28;19923;-78
2022/06/18 01:05:59;;;;;;;;;;;;;;;24.66;46.92;101792.22;5087245;28;19952;-77
2022/06/18 01:08:27;;;;;;;;;;;;;;;24.67;46.16;101793.97;5088223;28;19978;-78
2022/06/18 01:10:57;;;;;;;;;;;;;;;24.64;46.90;101796.84;5079337;28;19917;-78
2022/06/18 01:13:25;;;;;;;;;;;;;;;24.62;47.14;101790.66;5077729;28;20015;-78
2022/06/18 01:15:53;;;;;;;;;;;;;;;24.49;47.70;101786.03;5084448;28;19923;-79
2022/06/18 01:18:19;;;;;;;;;;;;;;;24.39;47.88;101787.59;5095961;28;19913;-78
2022/06/18 01:20:51;;;;;;;;;;;;;;;24.43;47.28;101778.28;5080080;28;19917;-80
2022/06/18 01:23:21;;;;;;;;;;;;;;;24.44;46.99;101785.44;5086885;28;19923;-79
2022/06/18 01:25:48;;;;;;;;;;;;;;;24.42;47.29;101781.97;5081472;28;20378;-79
2022/06/18 01:28:16;;;;;;;;;;;;;;;24.36;48.03;101780.53;5090225;28;20003;-79
2022/06/18 01:30:43;;;;;;;;;;;;;;;24.40;47.03;101786.63;5081140;28;20021;-78
2022/06/18 01:33:10;;;;;;;;;;;;;;;24.39;47.81;101776.75;5091506;28;19923;-78
2022/06/18 01:35:37;;;;;;;;;;;;;;;24.36;48.20;101774.22;5086321;28;19924;-78
2022/06/18 01:38:04;;;;;;;;;;;;;;;24.33;47.88;101767.16;5084030;28;19954;-78
2022/06/18 01:40:36;;;;;;;;;;;;;;;24.30;48.22;101774.63;5089101;28;19917;-78
2022/06/18 01:43:04;;;;;;;;;;;;;;;24.26;48.10;101760.41;5091810;28;19916;-79
2022/06/18 01:45:32;;;;;;;;;;;;;;;24.21;48.85;101768.84;5087786;28;19917;-78
2022/06/18 01:50:39;;;;;;;;;;;;;;;24.14;48.38;101775.59;5067791;28;19917;-77
2022/06/18 01:53:08;;;;;;;;;;;;;;;24.12;48.56;101779.38;5052603;28;19924;-78
2022/06/18 01:55:37;;;;;;;;;;;;;;;24.12;49.02;101774.81;5051206;28;19921;-78
2022/06/18 01:58:08;;;;;;;;;;;;;;;24.09;48.43;101775.03;5051671;28;19921;-78
2022/06/18 02:00:35;;;;;;;;;;;;;;;24.08;49.64;101781.41;5052559;28;19916;-79
2022/06/18 02:03:01;;;;;;;;;;;;;;;24.11;48.86;101783.03;5053930;28;20003;-78
2022/06/18 02:05:28;;;;;;;;;;;;;;;24.13;49.03;101779.25;5053027;28;19925;-78
2022/06/18 02:07:54;;;;;;;;;;;;;;;24.12;49.24;101777.50;5052564;28;19924;-78
2022/06/18 02:10:24;;;;;;;;;;;;;;;24.05;49.68;101770.75;5053050;28;19925;-78
2022/06/18 02:12:50;;;;;;;;;;;;;;;24.18;48.92;101768.16;5054361;28;19928;-79
2022/06/18 02:15:21;;;;;;;;;;;;;;;24.15;49.44;101776.44;5055614;28;20003;-79
2022/06/18 02:17:47;;;;;;;;;;;;;;;24.17;48.85;101775.38;5054387;28;19924;-80
2022/06/18 02:20:16;;;;;;;;;;;;;;;24.22;48.91;101775.09;5052051;28;19917;-80
2022/06/18 02:22:44;;;;;;;;;;;;;;;24.20;48.79;101774.31;5053094;28;19917;-80
2022/06/18 02:25:11;;;;;;;;;;;;;;;24.17;49.05;101775.38;5061370;28;20635;-80
2022/06/18 02:27:39;;;;;;;;;;;;;;;24.11;49.51;101781.19;5050094;28;19923;-79
2022/06/18 02:30:11;;;;;;;;;;;;;;;24.11;48.96;101783.91;5053059;28;20497;-78
2022/06/18 02:32:45;;;;;;;;;;;;;;;24.13;49.09;101784.69;5052486;28;20393;-80
2022/06/18 02:35:12;;;;;;;;;;;;;;;24.15;49.17;101784.56;5050132;28;19917;-79
2022/06/18 02:37:38;;;;;;;;;;;;;;;24.21;48.91;101792.31;5051215;28;19917;-79
2022/06/18 02:40:14;;;;;;;;;;;;;;;24.15;49.44;101793.59;5050911;28;19917;-79
2022/06/18 02:42:40;;;;;;;;;;;;;;;24.21;49.35;101792.31;5048643;28;20346;-79
2022/06/18 02:45:07;;;;;;;;;;;;;;;24.16;49.15;101792.63;5053314;28;20398;-79
2022/06/18 02:47:33;;;;;;;;;;;;;;;24.16;49.23;101795.34;5053862;28;19917;-79
2022/06/18 02:50:01;;;;;;;;;;;;;;;24.09;49.36;101787.66;5067584;28;19928;-79
2022/06/18 02:52:30;;;;;;;;;;;;;;;24.12;49.13;101791.06;5072635;28;19971;-79
2022/06/18 02:55:00;;;;;;;;;;;;;;;24.06;49.56;101788.72;5072639;28;20390;-80
2022/06/18 02:57:27;;;;;;;;;;;;;;;24.09;49.21;101791.25;5071043;28;19920;-80
2022/06/18 02:59:53;;;;;;;;;;;;;;;24.06;49.72;101788.72;5071730;28;20003;-80
2022/06/18 03:02:20;;;;;;;;;;;;;;;24.06;49.21;101794.13;5060395;28;19920;-80
2022/06/18 03:04:46;;;;;;;;;;;;;;;24.04;49.10;101790.69;5060680;28;20023;-79
2022/06/18 03:07:12;;;;;;;;;;;;;;;24.00;49.67;101790.00;5059129;28;19921;-79
2022/06/18 03:12:06;;;;;;;;;;;;;;;23.97;50.33;101789.31;5056399;28;20383;-80
2022/06/18 03:12:24;;;;;;;;;;;;;;;23.94;50.18;101794.91;5056356;28;19917;-78
2022/06/18 03:14:50;;;;;;;;;;;;;;;23.89;50.49;101793.31;5056060;28;19928;-78
2022/06/18 03:17:16;;;;;;;;;;;;;;;23.85;50.26;101789.06;5061953;28;19916;-79
2022/06/18 03:19:45;;;;;;;;;;;;;;;23.79;50.66;101796.69;5061842;28;19986;-80
2022/06/18 03:22:13;;;;;;;;;;;;;;;23.77;49.97;101796.78;5053559;28;20007;-79
2022/06/18 03:24:41;;;;;;;;;;;;;;;23.73;50.38;101800.66;5053309;28;19979;-78
2022/06/18 03:27:07;;;;;;;;;;;;;;;23.71;50.70;101786.31;5053230;28;20040;-79
2022/06/18 03:29:34;;;;;;;;;;;;;;;23.70;50.24;101792.69;5053812;28;19925;-79
2022/06/18 03:32:00;;;;;;;;;;;;;;;23.64;50.54;101787.66;5053550;28;19936;-78
2022/06/18 03:34:26;;;;;;;;;;;;;;;23.61;50.98;101795.97;5054209;28;19921;-78
2022/06/18 03:36:53;;;;;;;;;;;;;;;23.47;51.54;101794.09;5052793;28;20290;-78
2022/06/18 03:39:19;;;;;;;;;;;;;;;23.51;50.87;101784.84;5053778;28;20302;-79
2022/06/18 03:41:45;;;;;;;;;;;;;;;23.46;51.56;101785.09;5061431;28;19917;-78
2022/06/18 03:44:11;;;;;;;;;;;;;;;23.45;50.79;101796.00;5054508;28;19923;-78
2022/06/18 03:46:38;;;;;;;;;;;;;;;23.41;51.72;101798.03;5054576;28;19940;-78
2022/06/18 03:49:05;;;;;;;;;;;;;;;23.45;50.86;101798.72;5064777;28;20015;-78
2022/06/18 03:51:31;;;;;;;;;;;;;;;23.45;50.95;101804.13;5063541;28;20392;-79
2022/06/18 03:53:57;;;;;;;;;;;;;;;23.44;51.27;101803.28;5057469;28;20350;-79
2022/06/18 03:56:26;;;;;;;;;;;;;;;23.45;51.18;101796.88;5059136;28;19979;-78
2022/06/18 03:58:52;;;;;;;;;;;;;;;23.39;51.96;101799.94;5059980;28;19921;-79
2022/06/18 04:01:21;;;;;;;;;;;;;;;23.40;50.98;101796.28;5057349;28;19916;-79
2022/06/18 04:03:47;;;;;;;;;;;;;;;23.32;52.21;101804.00;5059090;28;19917;-79
2022/06/18 04:06:16;;;;;;;;;;;;;;;23.34;51.39;101808.34;5061130;28;20378;-79
2022/06/18 04:08:42;;;;;;;;;;;;;;;23.31;51.47;101808.50;5060636;28;20422;-79
2022/06/18 04:11:09;;;;;;;;;;;;;;;23.33;51.60;101806.59;5055480;28;19924;-79
2022/06/18 04:13:35;;;;;;;;;;;;;;;23.32;51.27;101809.41;5052358;28;19916;-79
2022/06/18 04:16:01;;;;;;;;;;;;;;;23.33;52.29;101805.72;5052443;28;19931;-79
2022/06/18 04:18:28;;;;;;;;;;;;;;;23.33;52.19;101800.31;5059226;28;20487;-79
2022/06/18 04:20:54;;;;;;;;;;;;;;;23.27;52.54;101810.53;5054063;28;19966;-79
2022/06/18 04:23:20;;;;;;;;;;;;;;;23.22;52.27;101809.91;5063709;28;19920;-78
2022/06/18 04:25:47;;;;;;;;;;;;;;;23.17;52.07;101813.88;5061211;28;20041;-79
2022/06/18 04:28:13;;;;;;;;;;;;;;;23.18;52.47;101808.38;5067543;22;19924;-77
2022/06/18 04:30:40;;;;;;;;;;;;;;;23.16;52.53;101804.88;5040656;28;19925;-78
2022/06/18 04:33:06;;;;;;;;;;;;;;;23.14;52.15;101804.06;5038095;28;19916;-79
2022/06/18 04:35:32;;;;;;;;;;;;;;;23.16;52.34;101810.28;5045457;28;19917;-82
2022/06/18 04:37:58;;;;;;;;;;;;;;;23.17;53.16;101806.63;5035939;28;19917;-82
2022/06/18 04:40:32;;;;;;;;;;;;;;;23.17;53.04;101806.63;5034734;28;19917;-80
2022/06/18 04:42:59;;;;;;;;;;;;;;;23.17;52.28;101803.91;5027556;28;19932;-80
2022/06/18 04:45:25;;;;;;;;;;;;;;;23.14;52.38;101804.06;5036650;28;19917;-79
2022/06/18 04:47:51;;;;;;;;;;;;;;;23.10;53.58;101805.19;5044024;28;20042;-80
2022/06/18 04:50:18;;;;;;;;;;;;;;;23.12;53.04;101811.38;5024029;28;19977;-80
2022/06/18 04:52:44;;;;;;;;;;;;;;;23.10;52.93;101810.59;5038148;28;19918;-82
2022/06/18 04:55:10;;;;;;;;;;;;;;;23.00;54.11;101809.38;5044490;28;19963;-82
2022/06/18 04:57:36;;;;;;;;;;;;;;;23.05;53.00;101807.28;5039853;28;19917;-82
2022/06/18 05:00:04;;;;;;;;;;;;;;;23.09;53.08;101801.63;5033196;28;19940;-79
2022/06/18 05:02:30;;;;;;;;;;;;;;;23.07;54.05;101797.28;5033258;28;19924;-80
2022/06/18 05:04:56;;;;;;;;;;;;;;;23.12;52.96;101797.03;5031187;28;20100;-80
2022/06/18 05:07:22;;;;;;;;;;;;;;;23.16;53.04;101799.47;5038932;28;20455;-80
2022/06/18 05:09:48;;;;;;;;;;;;;;;23.19;53.08;101799.31;5036546;28;19922;-80
2022/06/18 05:12:15;;;;;;;;;;;;;;;23.24;53.03;101797.19;5026728;28;20012;-77
2022/06/18 05:14:42;;;;;;;;;;;;;;;23.23;53.54;101802.69;5027968;28;19916;-79
2022/06/18 05:17:12;;;;;;;;;;;;;;;23.24;52.85;101793.59;5039119;28;20039;-79
2022/06/18 05:19:38;;;;;;;;;;;;;;;23.29;53.11;101801.44;5037301;28;19983;-78
2022/06/18 05:22:04;;;;;;;;;;;;;;;23.30;54.17;101797.78;5038374;28;20330;-80
2022/06/18 05:24:30;;;;;;;;;;;;;;;23.32;53.61;101801.28;5033387;28;19976;-78
2022/06/18 05:26:58;;;;;;;;;;;;;;;23.36;53.39;101800.13;5033676;28;19921;-79
2022/06/18 05:29:24;;;;;;;;;;;;;;;23.38;53.80;101803.63;5032610;28;19921;-79
2022/06/18 05:31:50;;;;;;;;;;;;;;;23.41;53.90;101798.03;5034661;28;19924;-81
2022/06/18 05:34:16;;;;;;;;;;;;;;;23.45;53.30;101804.97;5031538;28;19925;-80
2022/06/18 05:36:42;;;;;;;;;;;;;;;23.51;53.17;101795.66;5029723;28;19977;-80
2022/06/18 05:39:13;;;;;;;;;;;;;;;23.54;53.03;101799.03;5030839;28;19928;-79
2022/06/18 05:41:39;;;;;;;;;;;;;;;23.55;52.82;101799.91;5031713;28;20004;-81
2022/06/18 05:44:05;;;;;;;;;;;;;;;23.58;52.76;101797.88;5035647;28;20082;-80
2022/06/18 05:46:34;;;;;;;;;;;;;;;23.65;52.52;101805.63;5034471;28;20296;-81
2022/06/18 05:49:01;;;;;;;;;;;;;;;23.69;52.60;101801.78;5040072;28;19924;-79
2022/06/18 05:51:27;;;;;;;;;;;;;;;23.70;52.36;101803.53;5031204;28;19925;-81
2022/06/18 05:53:53;;;;;;;;;;;;;;;23.74;52.28;101803.25;5036088;28;20379;-82
2022/06/18 05:56:19;;;;;;;;;;;;;;;23.79;52.22;101802.97;5033905;28;20298;-82
2022/06/18 05:58:45;;;;;;;;;;;;;;;23.82;51.74;101801.91;5031081;28;19917;-81
2022/06/18 06:01:11;;;;;;;;;;;;;;;23.87;51.93;101806.06;5040342;28;19917;-82
2022/06/18 06:03:38;;;;;;;;;;;;;;;23.87;51.67;101810.63;5042064;28;20271;-82
2022/06/18 06:06:04;;;;;;;;;;;;;;;23.90;51.74;101805.91;5037464;28;19924;-82
2022/06/18 06:08:30;;;;;;;;;;;;;;;23.93;51.62;101804.88;5031017;28;19993;-81
2022/06/18 06:13:42;;;;;;;;;;;;;;;24.01;52.46;101812.50;5034401;28;19923;-80
2022/06/18 06:16:08;;;;;;;;;;;;;;;24.09;51.35;101814.75;5029032;28;19948;-82
2022/06/18 06:18:34;;;;;;;;;;;;;;;24.06;51.02;101816.69;5024530;28;19921;-79
2022/06/18 06:21:01;;;;;;;;;;;;;;;24.12;50.96;101814.56;5030185;28;19923;-79
2022/06/18 06:23:27;;;;;;;;;;;;;;;24.16;50.75;101822.41;5027326;28;19923;-81
2022/06/18 06:25:53;;;;;;;;;;;;;;;24.21;51.06;101823.00;5030747;28;19959;-79
2022/06/18 06:28:21;;;;;;;;;;;;;;;24.26;50.84;101822.69;5034610;28;19917;-80
2022/06/18 06:30:48;;;;;;;;;;;;;;;24.25;51.09;101820.06;5035826;28;19917;-78
2022/06/18 06:33:14;;;;;;;;;;;;;;;24.32;50.63;101832.28;5033451;28;20401;-80
2022/06/18 06:35:40;;;;;;;;;;;;;;;24.35;50.62;101819.41;5028240;28;20008;-80
2022/06/18 06:38:07;;;;;;;;;;;;;;;24.41;50.28;101831.69;5030936;28;19975;-79
2022/06/18 06:40:33;;;;;;;;;;;;;;;24.43;50.69;101829.75;5027878;28;19924;-80
2022/06/18 06:43:00;;;;;;;;;;;;;;;24.49;51.21;101834.78;5028175;28;19924;-79
2022/06/18 06:45:27;;;;;;;;;;;;;;;24.57;50.74;101841.56;5036337;28;20349;-81
2022/06/18 06:47:54;;;;;;;;;;;;;;;24.61;50.66;101837.66;5031609;28;19921;-82
2022/06/18 06:50:22;;;;;;;;;;;;;;;24.60;51.96;101842.25;5032524;28;19950;-81
2022/06/18 06:52:49;;;;;;;;;;;;;;;24.65;51.38;101841.94;5032683;28;20309;-83
2022/06/18 06:58:04;;;;;;;;;;;;;;;24.71;51.36;101838.84;5031303;28;19925;-82
2022/06/18 07:00:32;;;;;;;;;;;;;;;24.74;50.72;101838.66;5033433;28;19917;-82
2022/06/18 07:02:58;;;;;;;;;;;;;;;24.72;51.19;101840.59;5038088;28;19963;-81
2022/06/18 07:05:24;;;;;;;;;;;;;;;24.80;50.71;101849.13;5049791;28;19980;-78
2022/06/18 07:07:50;;;;;;;;;;;;;;;24.81;51.41;101849.97;5033918;28;19940;-81
2022/06/18 07:10:16;;;;;;;;;;;;;;;24.85;51.34;101848.81;5033485;28;19917;-81
2022/06/18 07:12:43;;;;;;;;;;;;;;;24.94;51.50;101855.50;5034438;28;20012;-78
2022/06/18 07:15:09;;;;;;;;;;;;;;;24.91;51.42;101850.25;5050841;28;19921;-82
2022/06/18 07:17:40;;;;;;;;;;;;;;;24.98;50.35;101846.19;5036767;28;20441;-83
2022/06/18 07:20:09;;;;;;;;;;;;;;;25.04;50.88;101851.19;5046803;28;19974;-80
2022/06/18 07:22:35;;;;;;;;;;;;;;;25.07;50.99;101850.97;5029301;28;20312;-81
2022/06/18 07:25:01;;;;;;;;;;;;;;;25.12;51.09;101853.41;5038036;28;19924;-82
2022/06/18 07:27:30;;;;;;;;;;;;;;;25.14;50.73;101852.31;5041176;28;19925;-81
2022/06/18 07:29:57;;;;;;;;;;;;;;;25.28;50.63;101855.97;5034478;28;19927;-78
2022/06/18 07:32:23;;;;;;;;;;;;;;;25.33;50.26;101867.38;5033778;28;19917;-80
2022/06/18 07:34:49;;;;;;;;;;;;;;;25.41;50.27;101865.06;5034217;28;19920;-79
2022/06/18 07:37:15;;;;;;;;;;;;;;;25.49;50.05;101859.97;5044913;28;19956;-80
2022/06/18 07:39:41;;;;;;;;;;;;;;;25.55;50.64;101858.72;5051207;28;19936;-80
2022/06/18 07:42:07;;;;;;;;;;;;;;;25.65;50.11;101853.53;5039355;28;19991;-80
2022/06/18 07:44:34;;;;;;;;;;;;;;;25.72;50.19;101851.25;5030323;28;20268;-79
2022/06/18 07:47:02;;;;;;;;;;;;;;;25.83;49.59;101854.09;5031949;28;19940;-82
2022/06/18 07:49:28;;;;;;;;;;;;;;;25.91;49.82;101856.31;5037846;28;19925;-80
2022/06/18 07:51:54;;;;;;;;;;;;;;;25.98;49.26;101846.72;5036741;28;19964;-81
2022/06/18 07:54:20;;;;;;;;;;;;;;;25.98;49.62;101852.16;5033425;28;19924;-80
2022/06/18 07:56:47;;;;;;;;;;;;;;;25.98;49.54;101855.78;5033899;28;20352;-81
2022/06/18 07:59:13;;;;;;;;;;;;;;;25.97;49.48;101845.88;5029867;28;19917;-81
2022/06/18 08:01:39;;;;;;;;;;;;;;;26.03;49.43;101850.00;5041313;28;20041;-79
2022/06/18 08:04:09;;;;;;;;;;;;;;;26.04;49.52;101840.88;5045298;28;19917;-79
2022/06/18 08:06:35;;;;;;;;;;;;;;;26.13;49.19;101840.28;5029328;28;19917;-79
2022/06/18 08:09:00;;;;;;;;;;;;;;;26.23;49.11;101839.63;5032306;28;19927;-81
2022/06/18 08:11:29;;;;;;;;;;;;;;;26.29;48.89;101844.63;5032739;28;20365;-81
2022/06/18 08:13:56;;;;;;;;;;;;;;;26.34;48.79;101837.00;5041550;28;19918;-79
2022/06/18 08:16:22;;;;;;;;;;;;;;;26.44;49.01;101842.66;5038840;28;19978;-81
2022/06/18 08:18:48;;;;;;;;;;;;;;;26.50;48.68;101838.63;5048954;28;19925;-79
2022/06/18 08:21:17;;;;;;;;;;;;;;;26.52;47.73;101839.38;5035947;28;19925;-80
2022/06/18 08:23:43;;;;;;;;;;;;;;;26.60;48.07;101836.97;5037257;28;19932;-83
2022/06/18 08:26:10;;;;;;;;;;;;;;;26.66;48.04;101833.81;5036037;28;19925;-80
2022/06/18 08:28:37;;;;;;;;;;;;;;;26.76;47.73;101831.34;5036141;28;19967;-79
2022/06/18 08:31:04;;;;;;;;;;;;;;;26.84;47.57;101828.91;5041422;28;20087;-80
2022/06/18 08:33:30;;;;;;;;;;;;;;;26.92;47.61;101831.94;5038256;28;19944;-77
2022/06/18 08:35:57;;;;;;;;;;;;;;;26.92;48.37;101833.78;5033336;28;19922;-80
2022/06/18 08:38:24;;;;;;;;;;;;;;;27.02;47.30;101818.53;5045185;28;19978;-81
2022/06/18 08:40:59;;;;;;;;;;;;;;;27.08;47.18;101828.94;5042358;28;19921;-81
2022/06/18 08:43:36;;;;;;;;;;;;;;;27.12;47.43;101827.72;5032361;28;19917;-81
2022/06/18 08:46:22;;;;;;;;;;;;;;;27.19;47.15;101819.09;5039294;28;19924;-80
2022/06/18 08:48:57;;;;;;;;;;;;;;;27.25;47.30;101824.06;5031331;28;19921;-78
2022/06/18 08:51:32;;;;;;;;;;;;;;;27.32;47.33;101822.63;5034339;28;19917;-79
2022/06/18 08:54:11;;;;;;;;;;;;;;;27.38;47.28;101816.72;5028852;28;20016;-80
2022/06/18 08:56:39;;;;;;;;;;;;;;;27.46;47.45;101807.16;5033636;28;20275;-82
2022/06/18 09:01:49;;;;;;;;;;;;;;;27.60;46.79;101810.53;5090419;27;20354;-81
2022/06/18 09:04:35;;;;;;;;;;;;;;;27.71;46.24;101811.56;5090372;28;19970;-79
2022/06/18 09:07:19;;;;;;;;;;;;;;;27.81;46.22;101801.66;5088739;28;20015;-80
2022/06/18 09:09:51;;;;;;;;;;;;;;;27.88;45.91;101802.06;5085955;28;19962;-82
2022/06/18 09:12:20;;;;;;;;;;;;;;;27.95;45.54;101802.44;5083171;28;19943;-82
2022/06/18 09:17:30;;;;;;;;;;;;;;;28.09;45.86;101803.13;5134994;27;19949;-82
2022/06/18 09:20:00;;;;;;;;;;;;;;;28.16;45.46;101813.53;5135802;27;20387;-82
2022/06/18 09:22:28;;;;;;;;;;;;;;;28.24;44.94;101813.78;5138556;27;19926;-81
2022/06/18 09:25:01;;;;;;;;;;;;;;;28.32;44.09;101805.84;5136331;27;20374;-82
2022/06/18 09:27:34;;;;;;;;;;;;;;;28.44;44.34;101809.44;5131542;27;19990;-81
2022/06/18 09:30:06;;;;;;;;;;;;;;;28.51;44.25;101818.00;5131120;27;19916;-82
2022/06/18 09:32:39;;;;;;;;;;;;;;;28.50;42.29;101808.06;5132002;27;20557;-82
2022/06/18 09:35:23;;;;;;;;;;;;;;;28.54;42.32;101801.41;5120656;27;19924;-80
2022/06/18 09:37:52;;;;;;;;;;;;;;;28.53;41.75;101807.84;5128913;27;19969;-81
2022/06/18 09:40:21;;;;;;;;;;;;;;;28.62;42.04;101807.06;5127309;27;21166;-81
2022/06/18 09:42:51;;;;;;;;;;;;;;;28.73;42.39;101812.53;5124912;27;20412;-81
2022/06/18 09:45:21;;;;;;;;;;;;;;;28.70;43.22;101803.78;5133683;27;19924;-81
2022/06/18 09:47:48;;;;;;;;;;;;;;;28.83;43.64;101809.06;5136411;27;20383;-82
2022/06/18 09:50:16;;;;;;;;;;;;;;;28.87;42.64;101813.25;5126066;27;20024;-80
2022/06/18 09:52:45;;;;;;;;;;;;;;;28.98;43.13;101810.50;5132360;27;19966;-80
2022/06/18 09:55:14;;;;;;;;;;;;;;;29.09;42.37;101814.22;5122888;27;19932;-81
2022/06/18 09:57:44;;;;;;;;;;;;;;;29.17;42.84;101807.13;5125598;27;19916;-84
2022/06/18 10:00:13;;;;;;;;;;;;;;;29.30;42.55;101806.13;5122350;27;19919;-82
2022/06/18 10:02:43;;;;;;;;;;;;;;;29.32;42.57;101805.00;5132784;27;19923;-82
2022/06/18 10:08:02;;;;;;;;;;;;;;;29.45;42.06;101799.34;5127174;27;19919;-83
2022/06/18 10:10:30;;;;;;;;;;;;;;;29.51;42.11;101793.34;5123057;27;19919;-82
2022/06/18 10:12:58;;;;;;;;;;;;;;;29.58;43.05;101790.94;5122011;27;19916;-81
2022/06/18 10:15:25;;;;;;;;;;;;;;;29.63;42.33;101796.00;5120142;27;20005;-82
2022/06/18 10:18:12;;;;;;;;;;;;;;;29.74;42.29;101784.16;5123551;27;19926;-82
2022/06/18 10:20:44;;;;;;;;;;;;;;;29.74;41.69;101778.72;5134719;27;19916;-82
2022/06/18 10:23:23;;;;;;;;;;;;;;;29.88;41.34;101789.28;5126390;27;19912;-82
2022/06/18 10:26:09;;;;;;;;;;;;;;;29.94;41.75;101780.56;5137345;27;20010;-81
2022/06/18 10:28:39;;;;;;;;;;;;;;;29.95;41.11;101765.91;5111322;28;19931;-80
2022/06/18 10:31:09;;;;;;;;;;;;;;;30.03;41.64;101770.69;5116653;22;19931;-77
2022/06/18 10:33:42;;;;;;;;;;;;;;;30.13;41.72;101770.75;5088180;28;20377;-78
2022/06/18 10:39:06;;;;;;;;;;;;;;;30.38;41.18;101763.06;5079935;28;19973;-77
2022/06/18 10:41:52;;;;;;;;;;;;;;;30.43;39.56;101763.53;5076128;28;19967;-77
2022/06/18 10:44:23;;;;;;;;;;;;;;;30.50;40.20;101764.72;5079796;28;19920;-77
2022/06/18 10:46:58;;;;;;;;;;;;;;;30.59;40.76;101766.63;5093901;28;20004;-77
2022/06/18 10:49:25;;;;;;;;;;;;;;;30.69;39.67;101760.31;5076118;28;19924;-77
2022/06/18 10:51:51;;;;;;;;;;;;;;;30.68;41.19;101753.13;5083169;28;19916;-78
2022/06/18 10:54:26;;;;;;;;;;;;;;;30.75;39.66;101757.03;5084738;28;19924;-78
2022/06/18 10:56:54;;;;;;;;;;;;;;;30.84;41.01;101753.41;5084051;28;19920;-77
2022/06/18 10:59:37;;;;;;;;;;;;;;;30.98;40.28;101750.28;5072696;28;20441;-77
2022/06/18 11:04:56;;;;;;;;;;;;;;;31.24;39.87;101748.88;5060568;28;20524;-77
2022/06/18 11:07:25;;;;;;;;;;;;;;;31.26;40.19;101757.81;5054880;28;19923;-78
2022/06/18 11:09:54;;;;;;;;;;;;;;;31.28;39.56;101750.31;5060558;28;20366;-77
2022/06/18 11:12:28;;;;;;;;;;;;;;;31.35;39.51;101753.34;5056648;28;19945;-78
2022/06/18 11:14:55;;;;;;;;;;;;;;;31.45;39.25;101752.31;5057100;28;20540;-78
2022/06/18 11:17:25;;;;;;;;;;;;;;;31.53;38.16;101748.84;5057293;28;20449;-78
2022/06/18 11:19:51;;;;;;;;;;;;;;;31.61;38.12;101750.84;5062045;28;20637;-78
2022/06/18 11:22:22;;;;;;;;;;;;;;;31.68;38.25;101734.69;5055646;28;19927;-79
2022/06/18 11:24:52;;;;;;;;;;;;;;;31.64;37.75;101734.16;5053554;28;19997;-78
2022/06/18 11:27:18;;;;;;;;;;;;;;;31.73;37.07;101732.41;5061847;28;19916;-78
2022/06/18 11:29:48;;;;;;;;;;;;;;;31.77;37.61;101722.88;5057482;28;20362;-78
2022/06/18 11:32:34;;;;;;;;;;;;;;;31.85;38.60;101722.13;5053470;28;19917;-79
2022/06/18 11:37:37;;;;;;;;;;;;;;;31.97;37.59;101725.53;5100319;27;1890864;-78
2022/06/18 11:43:01;;;;;;;;;;;;;;;32.13;37.75;101723.00;5130597;27;19916;-81
2022/06/18 11:45:35;;;;;;;;;;;;;;;32.30;37.76;101723.25;5137988;27;19962;-81
2022/06/18 11:48:08;;;;;;;;;;;;;;;32.47;36.47;101716.94;5132933;27;20404;-82
2022/06/18 11:50:41;;;;;;;;;;;;;;;32.63;37.13;101720.88;5122559;27;19916;-81
2022/06/18 11:53:18;;;;;;;;;;;;;;;32.65;36.53;101713.34;5106202;28;19920;-82
2022/06/18 11:55:48;;;;;;;;;;;;;;;32.78;36.92;101711.13;5113264;28;19927;-82
2022/06/18 11:58:20;;;;;;;;;;;;;;;32.92;36.45;101711.59;5114411;28;19923;-83
2022/06/18 12:01:04;;;;;;;;;;;;;;;33.04;37.09;101716.69;5118335;27;19916;-83
2022/06/18 12:03:50;;;;;;;;;;;;;;;33.11;35.31;101707.81;5106860;28;19957;-82
2022/06/18 12:06:20;;;;;;;;;;;;;;;33.23;36.56;101704.66;5108445;28;20434;-82
2022/06/18 12:08:47;;;;;;;;;;;;;;;33.23;35.05;101704.66;5110845;28;20007;-81
2022/06/18 12:13:59;;;;;;;;;;;;;;;33.26;35.80;101714.47;5061274;27;19925;-77
2022/06/18 12:16:35;;;;;;;;;;;;;;;33.19;35.44;101708.75;5066607;28;19963;-77
2022/06/18 12:19:09;;;;;;;;;;;;;;;33.25;35.52;101707.25;5068344;28;19924;-77
2022/06/18 12:24:37;;;;;;;;;;;;;;;33.31;35.83;101703.03;5046768;28;19971;-78
2022/06/18 12:27:08;;;;;;;;;;;;;;;33.35;36.57;101696.22;5054454;28;19929;-80
2022/06/18 12:29:42;;;;;;;;;;;;;;;33.36;35.51;101698.78;5051231;28;19917;-79
2022/06/18 12:32:16;;;;;;;;;;;;;;;33.23;34.69;101693.66;5056476;28;19924;-80
2022/06/18 12:37:27;;;;;;;;;;;;;;;33.36;35.38;101687.81;5108369;27;19973;-77
2022/06/18 12:42:41;;;;;;;;;;;;;;;33.36;34.62;101679.56;5024827;27;1927469;-78
2022/06/18 12:45:27;;;;;;;;;;;;;;;33.36;35.11;101676.81;5117548;27;19920;-78
2022/06/18 12:50:35;;;;;;;;;;;;;;;33.39;35.59;101664.66;5050206;28;19979;-78
2022/06/18 12:58:54;;;;;;;;;;;;;;;33.53;35.37;101660.44;5085756;27;20375;-78
2022/06/18 13:01:28;;;;;;;;;;;;;;;33.55;34.97;101662.00;5070263;28;19925;-78
2022/06/18 13:04:14;;;;;;;;;;;;;;;33.50;35.84;101667.13;5070356;28;19931;-79
2022/06/18 13:06:47;;;;;;;;;;;;;;;33.67;35.25;101661.72;5072208;28;19992;-79
2022/06/18 13:12:06;;;;;;;;;;;;;;;33.69;34.29;101667.91;5089559;27;19970;-80
2022/06/18 13:14:52;;;;;;;;;;;;;;;33.75;35.81;101670.00;5070262;28;19953;-78
2022/06/18 13:17:26;;;;;;;;;;;;;;;33.85;35.17;101668.00;5066196;28;19943;-79
2022/06/18 13:19:57;;;;;;;;;;;;;;;33.92;34.73;101672.84;5069289;28;19925;-79
2022/06/18 13:22:23;;;;;;;;;;;;;;;33.99;35.02;101673.91;5079136;28;19916;-80
2022/06/18 13:28:22;;;;;;;;;;;;;;;34.08;34.74;101659.16;5061700;28;19932;-80
2022/06/18 13:33:47;;;;;;;;;;;;;;;34.11;35.43;101657.97;5092416;27;19940;-78
2022/06/18 13:36:16;;;;;;;;;;;;;;;34.14;34.12;101653.00;5087632;27;20007;-79
2022/06/18 13:38:48;;;;;;;;;;;;;;;34.08;34.91;101648.16;5070635;27;19917;-79
2022/06/18 13:41:28;;;;;;;;;;;;;;;34.08;34.42;101652.81;5062016;27;20007;-80
2022/06/18 13:44:04;;;;;;;;;;;;;;;34.24;34.97;101652.00;5077345;27;19928;-80